Airfield :
LOGIN :

Register | Disclaimer

   EN    FR    IT 

 










Legend :    VFR   Marginal VFR   IFR   Intensive IFR   Very Intensive IFR
Visi :
Ceiling :
>= 8 km
>= 3000ft
5 to 8 km
1000 to 3000 ft
1500m to 5 km
500 to 1000 ft
800 to 1500m
200 to 500 ft
< 800m
< 200 ft
Symbols :   Thunderstorms  Fog  Heavy snow  Heavy precipitations  Wind > 20 kt
SIGMETs :     Misc.  Thunderstorms  Icing  Turbulence  Mountain Waves  Volcanic Ashes






- Airport Elevation : 1247 ft
- IATA code : PRG


LKPR - Praha Ruzyne

CURRENT METAR :
  • 291000Z 21003KT 160V260 9999 SCT021 11/06 Q1003 NOSIG

EXPIRED METARs :
  • 290930Z VRB04KT 9999 FEW017 10/07 Q1003 NOSIG
  • 290900Z VRB03KT 9999 FEW013 10/07 Q1003 NOSIG
  • 290830Z 17004KT 9999 FEW010 09/07 Q1003 NOSIG
  • 290800Z 22004KT 160V250 CAVOK 08/07 Q1003 NOSIG
  • 290730Z 18004KT 140V220 CAVOK 08/06 Q1002 NOSIG

TAF TAF LKPR
Valid from the 29 at 06:00 until the 30 at 12:00 UTC


290500Z 2906/3012 22004KT CAVOK
PROB30
TEMPO 2906/2907 3000 BR SCT003
TEMPO 2909/2914 VRB02KT 9999 BKN030
BECMG 2914/2916 11005KT
BECMG 2919/2921 VRB02KT 9999 BKN020
TEMPO 2921/3006 4000 -RA BR BKN012
PROB30
TEMPO 3001/3012 35004KT BKN007



MET'MAP, your aeronautical weather chart ! - Copyright ORBIFLY December 2007 - Disclaimer

ORBIFLY MET'MAP TEAM :

Programming & Development : Alexandra Zaïnal
Original concept : Baudouin d'Aumeries
Technical & hardware support : Manuel Goepfert
Assistance : Marc-Olivier Méhu




SOURCES & CREDITS :

   NOAA